• Join FlightAware (Why Join?)
  • Login
  • US Flag 
03:48AM EDT


 

Airport Tracker/Info


-or-


 

Live Flight TrackerFlight Track Log ✈ SWA4195 ✈ 27-Dec-2012 ✈ KBWI - KORF

Flight Track Log - Related Links

Times and Time Zones

All times are in EST time to prevent confusion due to time zone crossing. See the SWA4195 flight status page for this flight to view local times or setup timezone preferences in your user account.

Time Position Orientation Groundspeed Altitude Reporting Facility
EST Latitude Longitude Course Direction KTS MPH feet Rate Location/Type
11:36PM 39.1500 -76.7000 184° South 157 181 3,300  Level Potomac TRACON
11:37PM 39.1000 -76.6333 134° Southeast 255 293 6,200 3,060 Climbing Potomac TRACON
11:38PM 39.0333 -76.5833 150° Southeast 288 331 9,500 2,640 Climbing Potomac TRACON
11:40PM 38.8575 -76.5514 172° South 374 430 14,100 1,500 Climbing Washington Center
11:41PM 38.7597 -76.5314 171° South 369 425 14,100  Level Washington Center
11:42PM 38.6723 -76.7078 184° South  Level FlightAware Approximate
11:42PM 38.6639 -76.5142 172° South 358 412 14,100  Level Washington Center
11:43PM 38.5658 -76.4972 172° South 358 412 14,100 -60 Level Washington Center
11:44PM 38.4703 -76.4828 173° South 352 405 14,000 -960 Descending Washington Center
11:45PM 38.3744 -76.4631 171° South 352 405 12,200 -1,860 Descending Washington Center
11:46PM 38.2828 -76.4461 172° South 352 405 10,300 -1,140 Descending Washington Center
11:47PM 38.1869 -76.4292 172° South 352 405 10,000 -180 Descending Washington Center
11:48PM 38.0953 -76.4097 171° South 352 405 10,000  Level Washington Center
11:49PM 38.0017 -76.3956 173° South 352 405 10,000  Level Washington Center
11:50PM 37.9100 -76.3786 172° South 347 399 10,000  Level Washington Center
11:51PM 37.8642 -76.3731 175° South 336 387 10,000  Level Washington Center
11:51PM 37.8183 -76.3619 169° South 347 399 10,000  Level Washington Center
11:52PM 37.7703 -76.3589 177° South 337 388 10,000  Level Washington Center
11:52PM 37.7244 -76.3453 167° South 347 399 10,000 -420 Level Washington Center
11:53PM 37.6828 -76.3422 177° South 330 380 9,600 -1,020 Descending Washington Center
11:53PM 37.6392 -76.3314 169° South 334 384 9,000 -1,500 Descending Washington Center
11:54PM 37.5975 -76.3283 177° South 303 349 8,200 -1,380 Descending Washington Center
11:54PM 37.5558 -76.3175 168° South 317 365 7,700 -1,320 Descending Washington Center
11:55PM 37.5097 -76.3169 179° South 291 335 6,900 -1,680 Descending Washington Center
11:55PM 37.4744 -76.3167 180° South 304 350 6,000 -1,620 Descending Washington Center
11:56PM 37.4306 -76.3214 185° South 283 326 5,300 -1,020 Descending Washington Center
11:56PM 37.3972 -76.3211 180° South 293 337 5,000 -300 Descending Washington Center
11:57PM 37.3514 -76.3233 182° South 283 326 5,000  Level Washington Center
11:57PM 37.3200 -76.3231 180° South 293 337 5,000  Level Washington Center
11:58PM 37.2719 -76.3278 184° South 280 322 5,000  Level Washington Center
11:58PM 37.2408 -76.3250 176° South 288 331 5,000  Level Washington Center
11:59PM 37.1886 -76.3347 188° South 281 323 5,000  Level Washington Center
11:59PM 37.1636 -76.3319 175° South 288 331 5,000  Level Washington Center
12:00AM 37.1072 -76.3367 184° South 282 325 5,000  Level Washington Center
12:00AM 37.0842 -76.3339 175° South 288 331 5,000  Level Washington Center
12:01AM 37.0278 -76.3386 184° South 280 322 5,000 -660 Level Washington Center
12:02AM 36.9506 -76.3431 183° South 282 325 4,000 -840 Descending Washington Center
12:03AM 36.8817 -76.3475 183° South 222 255 3,400 -600 Descending Washington Center